Time;durP1;ratioP1;P1;durP2;ratioP2;P2;SDS_P1;SDS_P2;PMS_P1;PMS_P2;Temp;Humidity;BMP_temperature;BMP_pressure;BME280_temperature;BME280_humidity;BME280_pressure;Samples;Min_cycle;Max_cycle;Signal;HPM_P1;HPM_P2
2023/01/27 00:00:20;;;;;;;44.97;20.38;;;;;;;;;;5080871;28;20047;-68
2023/01/27 00:02:45;;;;;;;45.30;21.45;;;;;;;;;;5078180;28;20626;-68
2023/01/27 00:05:13;;;;;;;42.60;21.27;;;;;;;;;;5079601;28;20119;-69
2023/01/27 00:07:44;;;;;;;45.05;20.85;;;;;;;;;;5079721;28;20059;-68
2023/01/27 00:10:15;;;;;;;38.83;19.20;;;;;;;;;;5081876;28;20131;-69
2023/01/27 00:15:27;;;;;;;44.92;20.58;;;;;;;;;;5079654;28;20040;-69
2023/01/27 00:17:53;;;;;;;50.22;22.42;;;;;;;;;;5076569;28;20468;-70
2023/01/27 00:25:49;;;;;;;40.30;20.30;;;;;;;;;;5075696;28;20159;-69
2023/01/27 00:28:21;;;;;;;42.30;20.05;;;;;;;;;;5080599;28;20081;-68
2023/01/27 00:30:51;;;;;;;51.70;23.23;;;;;;;;;;5077381;28;20035;-68
2023/01/27 00:33:23;;;;;;;50.03;23.45;;;;;;;;;;5062072;28;20020;-68
2023/01/27 00:35:49;;;;;;;45.83;20.38;;;;;;;;;;5078519;28;20056;-68
2023/01/27 00:38:15;;;;;;;49.25;22.98;;;;;;;;;;5074988;28;20043;-69
2023/01/27 00:41:14;;;;;;;52.40;21.27;;;;;;;;;;5076593;28;20036;-68
2023/01/27 00:43:27;;;;;;;59.08;24.52;;;;;;;;;;5080104;28;20533;-68
2023/01/27 00:45:52;;;;;;;53.03;24.73;;;;;;;;;;5067738;28;20040;-69
2023/01/27 00:48:18;;;;;;;51.03;22.80;;;;;;;;;;5066255;28;20032;-68
2023/01/27 00:50:44;;;;;;;46.78;20.35;;;;;;;;;;5075809;28;20033;-69
2023/01/27 00:53:09;;;;;;;45.45;21.90;;;;;;;;;;5080498;28;20040;-68
2023/01/27 00:55:35;;;;;;;48.67;21.08;;;;;;;;;;5060863;28;21950;-69
2023/01/27 00:58:00;;;;;;;48.15;19.48;;;;;;;;;;5079693;28;20036;-69
2023/01/27 01:00:26;;;;;;;37.88;18.13;;;;;;;;;;5083323;28;20031;-68
2023/01/27 01:02:52;;;;;;;46.08;21.15;;;;;;;;;;5071757;28;20082;-68
2023/01/27 01:05:19;;;;;;;52.70;22.33;;;;;;;;;;5071642;28;20518;-69
2023/01/27 01:07:45;;;;;;;40.00;19.27;;;;;;;;;;5086339;28;20043;-69
2023/01/27 01:10:10;;;;;;;50.10;22.13;;;;;;;;;;5085511;28;20043;-69
2023/01/27 01:12:36;;;;;;;46.33;20.95;;;;;;;;;;5074099;28;20037;-69
2023/01/27 01:15:02;;;;;;;44.30;21.30;;;;;;;;;;5080534;28;20028;-69
2023/01/27 01:17:27;;;;;;;47.17;21.00;;;;;;;;;;5087222;28;20036;-68
2023/01/27 01:19:53;;;;;;;52.20;23.30;;;;;;;;;;5083392;28;20419;-68
2023/01/27 01:22:18;;;;;;;45.25;22.05;;;;;;;;;;5082580;28;20036;-68
2023/01/27 01:24:44;;;;;;;53.00;23.27;;;;;;;;;;5082063;28;20399;-69
2023/01/27 01:27:12;;;;;;;40.22;19.27;;;;;;;;;;5086172;28;20044;-68
2023/01/27 01:29:38;;;;;;;42.60;21.70;;;;;;;;;;5092621;28;20039;-69
2023/01/27 01:32:04;;;;;;;49.22;20.70;;;;;;;;;;5067882;28;20488;-69
2023/01/27 01:34:30;;;;;;;52.30;22.17;;;;;;;;;;5081062;28;20046;-69
2023/01/27 01:36:55;;;;;;;47.58;21.75;;;;;;;;;;5086555;28;20487;-69
2023/01/27 01:39:21;;;;;;;38.08;18.42;;;;;;;;;;5071436;28;20032;-69
2023/01/27 01:41:46;;;;;;;45.13;22.45;;;;;;;;;;5081070;28;20535;-68
2023/01/27 01:44:27;;;;;;;43.75;18.70;;;;;;;;;;5081565;28;20044;-68
2023/01/27 01:46:53;;;;;;;49.75;21.08;;;;;;;;;;5081089;28;20112;-68
2023/01/27 01:49:22;;;;;;;46.85;21.70;;;;;;;;;;5084128;28;20059;-68
2023/01/27 01:51:56;;;;;;;57.45;23.38;;;;;;;;;;5065305;28;20036;-68
2023/01/27 01:54:28;;;;;;;45.45;22.77;;;;;;;;;;5080568;28;20028;-68
2023/01/27 01:57:06;;;;;;;52.85;23.33;;;;;;;;;;5067991;28;20039;-68
2023/01/27 01:59:40;;;;;;;43.72;20.55;;;;;;;;;;5074695;28;20031;-68
2023/01/27 02:02:11;;;;;;;44.08;20.95;;;;;;;;;;5096158;28;20649;-68
2023/01/27 02:04:41;;;;;;;39.03;19.75;;;;;;;;;;5083644;28;20040;-68
2023/01/27 02:07:23;;;;;;;38.15;19.85;;;;;;;;;;5080864;28;20032;-69
2023/01/27 02:09:50;;;;;;;47.22;22.13;;;;;;;;;;5071126;28;20075;-68
2023/01/27 02:12:16;;;;;;;37.03;17.92;;;;;;;;;;5062362;28;20655;-68
2023/01/27 02:14:42;;;;;;;38.72;18.42;;;;;;;;;;5076922;28;20036;-69
2023/01/27 02:17:11;;;;;;;36.63;17.23;;;;;;;;;;5063300;28;20488;-68
2023/01/27 02:19:52;;;;;;;33.10;16.23;;;;;;;;;;5078594;28;20395;-69
2023/01/27 02:22:28;;;;;;;32.10;16.55;;;;;;;;;;5080985;28;20040;-69
2023/01/27 02:24:59;;;;;;;40.13;16.55;;;;;;;;;;5076425;28;20075;-69
2023/01/27 02:27:24;;;;;;;34.10;16.10;;;;;;;;;;5062171;28;20038;-68
2023/01/27 02:29:51;;;;;;;41.58;20.27;;;;;;;;;;5079099;28;20058;-68
2023/01/27 02:32:25;;;;;;;39.28;18.08;;;;;;;;;;5075510;28;20400;-68
2023/01/27 02:34:55;;;;;;;32.95;16.92;;;;;;;;;;5077143;28;20036;-68
2023/01/27 02:37:23;;;;;;;37.65;17.23;;;;;;;;;;5062203;28;20059;-69
2023/01/27 02:39:50;;;;;;;42.13;18.15;;;;;;;;;;5082033;28;20032;-68
2023/01/27 02:42:17;;;;;;;37.28;17.08;;;;;;;;;;5074075;28;20032;-69
2023/01/27 02:44:43;;;;;;;33.75;17.02;;;;;;;;;;5058821;28;20043;-68
2023/01/27 02:47:08;;;;;;;37.78;17.30;;;;;;;;;;5064583;28;20031;-69
2023/01/27 02:49:34;;;;;;;31.02;15.70;;;;;;;;;;5068868;28;20093;-68
2023/01/27 02:52:01;;;;;;;41.33;17.08;;;;;;;;;;5065797;28;20109;-68
2023/01/27 02:54:29;;;;;;;35.28;15.93;;;;;;;;;;5058705;28;20036;-68
2023/01/27 02:56:54;;;;;;;34.95;17.67;;;;;;;;;;5075912;28;20039;-68
2023/01/27 02:59:22;;;;;;;36.03;16.67;;;;;;;;;;5079664;28;20659;-68
2023/01/27 03:01:48;;;;;;;30.10;14.68;;;;;;;;;;5080622;28;20509;-68
2023/01/27 03:04:14;;;;;;;35.60;15.80;;;;;;;;;;5080199;28;20073;-68
2023/01/27 03:06:41;;;;;;;26.77;15.15;;;;;;;;;;5067400;28;20062;-68
2023/01/27 03:09:07;;;;;;;30.77;15.68;;;;;;;;;;5062191;28;20094;-68
2023/01/27 03:14:17;;;;;;;35.78;17.95;;;;;;;;;;5064702;28;20478;-69
2023/01/27 03:19:31;;;;;;;36.22;15.90;;;;;;;;;;5080666;28;20646;-67
2023/01/27 03:21:56;;;;;;;39.97;15.38;;;;;;;;;;5060431;28;20037;-67
2023/01/27 03:24:24;;;;;;;42.10;18.45;;;;;;;;;;5065711;28;20201;-67
2023/01/27 03:26:52;;;;;;;34.58;16.15;;;;;;;;;;5079167;28;20076;-68
2023/01/27 03:32:09;;;;;;;30.77;14.98;;;;;;;;;;5078646;28;20078;-67
2023/01/27 03:34:35;;;;;;;31.90;15.35;;;;;;;;;;5061328;28;20108;-69
2023/01/27 03:48:11;;;;;;;36.40;15.32;;;;;;;;;;5074744;28;20032;-69
2023/01/27 03:50:42;;;;;;;34.13;16.63;;;;;;;;;;5078644;28;20085;-69
2023/01/27 03:53:08;;;;;;;32.75;14.95;;;;;;;;;;5078413;28;20049;-68
2023/01/27 03:55:36;;;;;;;31.50;14.52;;;;;;;;;;5078113;28;20032;-68
2023/01/27 03:58:18;;;;;;;29.00;15.30;;;;;;;;;;5078504;28;20907;-67
2023/01/27 04:00:46;;;;;;;29.25;14.98;;;;;;;;;;5075430;28;20626;-69
2023/01/27 04:08:43;;;;;;;30.98;14.80;;;;;;;;;;5077077;28;20078;-68
2023/01/27 04:14:13;;;;;;;36.13;17.80;;;;;;;;;;5037410;28;20299;-68
2023/01/27 04:16:39;;;;;;;34.50;16.23;;;;;;;;;;5033484;28;20675;-69
2023/01/27 04:19:07;;;;;;;39.03;18.60;;;;;;;;;;5033670;28;20036;-68
2023/01/27 04:21:33;;;;;;;38.78;19.58;;;;;;;;;;5031759;28;20048;-68
2023/01/27 04:23:59;;;;;;;44.95;19.52;;;;;;;;;;5037094;28;20047;-68
2023/01/27 04:26:25;;;;;;;44.80;21.23;;;;;;;;;;5030364;28;20144;-68
2023/01/27 04:28:51;;;;;;;34.45;18.67;;;;;;;;;;5019443;28;20049;-68
2023/01/27 04:31:17;;;;;;;44.85;22.38;;;;;;;;;;5031913;28;20191;-68
2023/01/27 04:33:43;;;;;;;44.05;22.48;;;;;;;;;;5030193;28;20033;-68
2023/01/27 04:36:11;;;;;;;45.65;21.85;;;;;;;;;;5033241;28;20037;-68
2023/01/27 04:38:36;;;;;;;39.13;18.90;;;;;;;;;;5029221;28;20045;-68
2023/01/27 04:41:02;;;;;;;41.85;19.20;;;;;;;;;;5034968;28;20044;-69
2023/01/27 04:43:28;;;;;;;35.83;19.15;;;;;;;;;;5024187;28;20042;-68
2023/01/27 04:45:54;;;;;;;42.78;20.55;;;;;;;;;;5065875;28;20054;-68
2023/01/27 04:48:19;;;;;;;44.42;20.98;;;;;;;;;;5075988;28;20116;-68
2023/01/27 04:50:45;;;;;;;42.65;20.77;;;;;;;;;;5083955;28;20595;-67
2023/01/27 04:53:10;;;;;;;37.70;18.67;;;;;;;;;;5075456;28;20039;-68
2023/01/27 04:55:36;;;;;;;41.05;19.85;;;;;;;;;;5080243;28;20280;-68
2023/01/27 04:58:03;;;;;;;40.40;20.48;;;;;;;;;;5078542;28;20098;-69
2023/01/27 05:00:28;;;;;;;38.13;19.00;;;;;;;;;;5087015;28;20028;-69
2023/01/27 05:02:54;;;;;;;38.42;19.20;;;;;;;;;;5082494;28;20049;-69
2023/01/27 05:05:19;;;;;;;38.13;18.83;;;;;;;;;;5082327;28;20063;-71
2023/01/27 05:07:45;;;;;;;41.83;19.25;;;;;;;;;;5074972;28;20138;-68
2023/01/27 05:10:10;;;;;;;32.33;17.67;;;;;;;;;;5079726;28;20149;-68
2023/01/27 05:12:36;;;;;;;34.13;18.35;;;;;;;;;;5077790;28;20035;-68
2023/01/27 05:15:02;;;;;;;36.58;20.90;;;;;;;;;;5076712;28;20039;-69
2023/01/27 05:17:33;;;;;;;42.35;19.27;;;;;;;;;;5077274;28;20495;-69
2023/01/27 05:19:59;;;;;;;36.00;19.27;;;;;;;;;;5077168;28;20111;-69
2023/01/27 05:22:24;;;;;;;36.42;18.70;;;;;;;;;;5077051;28;20169;-68
2023/01/27 05:24:50;;;;;;;43.95;20.67;;;;;;;;;;5076594;28;20123;-68
2023/01/27 05:27:16;;;;;;;33.67;18.17;;;;;;;;;;5079844;28;20032;-68
2023/01/27 05:29:42;;;;;;;34.60;19.52;;;;;;;;;;5073535;28;20024;-68
2023/01/27 05:32:08;;;;;;;38.33;20.38;;;;;;;;;;5075855;28;20025;-69
2023/01/27 05:34:33;;;;;;;39.75;18.15;;;;;;;;;;5077970;28;20708;-68
2023/01/27 05:36:59;;;;;;;36.45;17.17;;;;;;;;;;5076364;28;20055;-69
2023/01/27 05:39:24;;;;;;;36.30;19.17;;;;;;;;;;5075089;28;20514;-69
2023/01/27 05:41:50;;;;;;;38.63;18.83;;;;;;;;;;5081422;28;20683;-69
2023/01/27 05:44:15;;;;;;;40.28;20.65;;;;;;;;;;5074726;28;20114;-69
2023/01/27 05:46:41;;;;;;;45.95;21.85;;;;;;;;;;5078466;28;20044;-69
2023/01/27 05:49:07;;;;;;;44.38;22.58;;;;;;;;;;5078226;28;20032;-68
2023/01/27 05:51:40;;;;;;;47.67;23.08;;;;;;;;;;5078304;28;20036;-69
2023/01/27 05:54:06;;;;;;;32.10;16.90;;;;;;;;;;5082561;28;20115;-68
2023/01/27 05:56:33;;;;;;;41.67;19.77;;;;;;;;;;5082726;28;20025;-68
2023/01/27 05:58:58;;;;;;;38.45;18.55;;;;;;;;;;5078450;28;20060;-68
2023/01/27 06:01:26;;;;;;;39.47;20.15;;;;;;;;;;5087422;28;20104;-69
2023/01/27 06:03:52;;;;;;;34.03;16.45;;;;;;;;;;5083886;28;20092;-68
2023/01/27 06:06:20;;;;;;;39.35;19.48;;;;;;;;;;5081950;28;20024;-68
2023/01/27 06:08:46;;;;;;;35.25;18.58;;;;;;;;;;5081219;28;20032;-69
2023/01/27 06:11:13;;;;;;;40.22;21.02;;;;;;;;;;5077195;28;20031;-68
2023/01/27 06:13:39;;;;;;;40.60;19.83;;;;;;;;;;5081404;28;20035;-68
2023/01/27 06:16:07;;;;;;;38.30;19.67;;;;;;;;;;5083706;28;20032;-68
2023/01/27 06:18:33;;;;;;;38.80;19.33;;;;;;;;;;5081043;28;20115;-68
2023/01/27 06:21:00;;;;;;;43.88;19.40;;;;;;;;;;5080546;28;20166;-68
2023/01/27 06:23:27;;;;;;;41.33;20.42;;;;;;;;;;5077942;28;20043;-68
2023/01/27 06:25:54;;;;;;;41.70;20.95;;;;;;;;;;5081540;28;20411;-68
2023/01/27 06:28:19;;;;;;;33.00;17.25;;;;;;;;;;5079244;28;20036;-69
2023/01/27 06:30:45;;;;;;;43.97;21.85;;;;;;;;;;5076201;28;20039;-68
2023/01/27 06:33:11;;;;;;;47.03;22.65;;;;;;;;;;5080767;28;20531;-68
2023/01/27 06:35:39;;;;;;;40.35;18.55;;;;;;;;;;5080526;28;20032;-69
2023/01/27 06:38:07;;;;;;;36.72;18.85;;;;;;;;;;5082763;28;20043;-69
2023/01/27 06:40:34;;;;;;;43.40;21.80;;;;;;;;;;5081515;28;20071;-68
2023/01/27 06:43:00;;;;;;;33.70;17.50;;;;;;;;;;5078695;28;20028;-69
2023/01/27 06:45:26;;;;;;;44.33;21.00;;;;;;;;;;5080985;28;20028;-67
2023/01/27 06:47:59;;;;;;;31.30;14.75;;;;;;;;;;5078621;28;20043;-68
2023/01/27 06:50:27;;;;;;;36.35;19.33;;;;;;;;;;5078663;28;20038;-67
2023/01/27 06:52:59;;;;;;;38.38;18.98;;;;;;;;;;5082108;28;20483;-68
2023/01/27 06:55:26;;;;;;;39.08;18.02;;;;;;;;;;5077901;28;20387;-67
2023/01/27 06:57:51;;;;;;;25.58;12.15;;;;;;;;;;5080319;28;20036;-67
2023/01/27 07:00:17;;;;;;;34.78;17.88;;;;;;;;;;5085607;28;20044;-67
2023/01/27 07:02:43;;;;;;;32.78;17.67;;;;;;;;;;5082479;28;20483;-68
2023/01/27 07:05:10;;;;;;;34.90;17.02;;;;;;;;;;5080334;28;20040;-67
2023/01/27 07:07:35;;;;;;;32.45;16.80;;;;;;;;;;5077583;28;20083;-67
2023/01/27 07:10:01;;;;;;;31.08;16.88;;;;;;;;;;5075834;28;20072;-68
2023/01/27 07:12:26;;;;;;;30.77;14.90;;;;;;;;;;5077933;28;20036;-67
2023/01/27 07:14:52;;;;;;;31.13;15.68;;;;;;;;;;5079658;28;20024;-68
2023/01/27 07:17:17;;;;;;;35.15;15.55;;;;;;;;;;5076882;28;20020;-68
2023/01/27 07:19:43;;;;;;;32.90;15.45;;;;;;;;;;5079693;28;20509;-67
2023/01/27 07:22:08;;;;;;;27.40;14.77;;;;;;;;;;5080006;28;20039;-67
2023/01/27 07:24:34;;;;;;;33.85;19.98;;;;;;;;;;5077281;28;20032;-67
2023/01/27 07:27:00;;;;;;;30.63;15.45;;;;;;;;;;5077765;28;20093;-67
2023/01/27 07:29:26;;;;;;;27.40;14.43;;;;;;;;;;5079310;28;20399;-67
2023/01/27 07:31:51;;;;;;;30.73;16.08;;;;;;;;;;5076852;28;20529;-68
2023/01/27 07:34:17;;;;;;;32.30;15.57;;;;;;;;;;5077176;28;20028;-68
2023/01/27 07:36:42;;;;;;;31.48;15.73;;;;;;;;;;5077437;28;20123;-68
2023/01/27 07:39:08;;;;;;;33.65;15.45;;;;;;;;;;5076793;28;20031;-68
2023/01/27 07:41:33;;;;;;;31.48;16.60;;;;;;;;;;5079959;28;20090;-67
2023/01/27 07:44:00;;;;;;;25.92;14.38;;;;;;;;;;5055442;28;20273;-68
2023/01/27 07:46:26;;;;;;;32.70;15.63;;;;;;;;;;5061225;28;20039;-67
2023/01/27 07:48:51;;;;;;;32.70;16.05;;;;;;;;;;5077101;28;20486;-67
2023/01/27 07:51:17;;;;;;;25.92;13.82;;;;;;;;;;5078202;28;20048;-67
2023/01/27 07:53:43;;;;;;;30.65;15.85;;;;;;;;;;5078884;28;20024;-68
2023/01/27 07:56:11;;;;;;;30.40;15.13;;;;;;;;;;5083645;28;20032;-67
2023/01/27 07:58:38;;;;;;;26.58;16.00;;;;;;;;;;5075347;28;20085;-67
2023/01/27 08:01:06;;;;;;;28.70;14.82;;;;;;;;;;5076272;28;20139;-68
2023/01/27 08:03:31;;;;;;;30.40;14.95;;;;;;;;;;5079593;28;20031;-67
2023/01/27 08:05:57;;;;;;;28.17;13.95;;;;;;;;;;5073143;28;20404;-67
2023/01/27 08:08:22;;;;;;;31.15;14.63;;;;;;;;;;5076684;28;20040;-67
2023/01/27 08:10:50;;;;;;;31.17;14.13;;;;;;;;;;5077180;28;20028;-68
2023/01/27 08:13:16;;;;;;;26.25;13.82;;;;;;;;;;5082400;28;20040;-68
2023/01/27 08:15:42;;;;;;;24.17;12.73;;;;;;;;;;5077263;28;20391;-67
2023/01/27 08:18:08;;;;;;;25.67;13.18;;;;;;;;;;5079729;28;20040;-67
2023/01/27 08:20:33;;;;;;;22.50;12.80;;;;;;;;;;5077083;28;20539;-68
2023/01/27 08:22:59;;;;;;;24.55;13.60;;;;;;;;;;5074484;28;20039;-67
2023/01/27 08:25:24;;;;;;;27.35;12.73;;;;;;;;;;5078640;28;20085;-68
2023/01/27 08:27:52;;;;;;;27.23;14.20;;;;;;;;;;5077213;28;20029;-67
2023/01/27 08:30:18;;;;;;;22.50;12.23;;;;;;;;;;5083741;28;20035;-67
2023/01/27 08:32:43;;;;;;;23.98;12.93;;;;;;;;;;5078284;28;20085;-66
2023/01/27 08:35:09;;;;;;;23.50;13.52;;;;;;;;;;5074206;28;20036;-66
2023/01/27 08:37:34;;;;;;;24.83;12.85;;;;;;;;;;5078565;28;20039;-68
2023/01/27 08:40:00;;;;;;;20.67;12.18;;;;;;;;;;5072992;28;20069;-68
2023/01/27 08:42:26;;;;;;;21.15;12.23;;;;;;;;;;5072684;28;20391;-68
2023/01/27 08:44:51;;;;;;;21.02;11.35;;;;;;;;;;5076815;28;20040;-67
2023/01/27 08:47:17;;;;;;;18.92;11.07;;;;;;;;;;5078222;28;20398;-68
2023/01/27 08:49:42;;;;;;;19.15;11.45;;;;;;;;;;5075686;28;20055;-67
2023/01/27 08:52:08;;;;;;;18.77;11.48;;;;;;;;;;5078380;28;20131;-67
2023/01/27 08:54:34;;;;;;;21.15;11.68;;;;;;;;;;5080654;28;20396;-67
2023/01/27 08:56:59;;;;;;;20.77;11.93;;;;;;;;;;5080267;28;20127;-67
2023/01/27 08:59:25;;;;;;;20.15;11.95;;;;;;;;;;5077558;28;20043;-68
2023/01/27 09:01:50;;;;;;;16.48;10.48;;;;;;;;;;5076117;28;20096;-66
2023/01/27 09:04:16;;;;;;;20.02;10.85;;;;;;;;;;5077798;28;20035;-67
2023/01/27 09:06:41;;;;;;;22.40;11.95;;;;;;;;;;5076366;28;20036;-66
2023/01/27 09:09:10;;;;;;;19.02;11.00;;;;;;;;;;5078582;28;20047;-67
2023/01/27 09:11:41;;;;;;;20.73;11.83;;;;;;;;;;5073510;28;20476;-68
2023/01/27 09:14:07;;;;;;;21.75;12.55;;;;;;;;;;5076701;28;20297;-68
2023/01/27 09:16:33;;;;;;;25.95;12.73;;;;;;;;;;5077387;28;20050;-68
2023/01/27 09:18:58;;;;;;;27.40;13.82;;;;;;;;;;5080693;28;20028;-68
2023/01/27 09:21:24;;;;;;;19.20;11.85;;;;;;;;;;5081215;28;20348;-68
2023/01/27 09:23:50;;;;;;;27.73;13.23;;;;;;;;;;5081508;28;20228;-68
2023/01/27 09:26:16;;;;;;;24.92;12.27;;;;;;;;;;5083548;28;20116;-68
2023/01/27 09:28:42;;;;;;;26.73;12.77;;;;;;;;;;5079789;28;20207;-67
2023/01/27 09:31:08;;;;;;;22.30;11.77;;;;;;;;;;5083032;28;20450;-68
2023/01/27 09:33:34;;;;;;;22.92;12.07;;;;;;;;;;5079928;28;20102;-67
2023/01/27 09:36:13;;;;;;;24.85;13.60;;;;;;;;;;5086638;28;20028;-68
2023/01/27 09:38:57;;;;;;;23.20;12.57;;;;;;;;;;5062325;28;20032;-68
2023/01/27 09:41:43;;;;;;;25.08;13.52;;;;;;;;;;5080972;28;20036;-68
2023/01/27 09:44:36;;;;;;;23.55;13.30;;;;;;;;;;5082417;28;20077;-68
2023/01/27 09:47:02;;;;;;;26.23;12.40;;;;;;;;;;5081164;28;20045;-68
2023/01/27 09:49:45;;;;;;;27.58;12.88;;;;;;;;;;5078367;28;20047;-67
2023/01/27 09:52:32;;;;;;;24.75;13.23;;;;;;;;;;5080453;28;20653;-68
2023/01/27 09:55:13;;;;;;;25.33;13.43;;;;;;;;;;5083907;28;20036;-68
2023/01/27 09:58:05;;;;;;;27.15;12.07;;;;;;;;;;5085173;28;20479;-67
2023/01/27 10:00:52;;;;;;;24.27;12.85;;;;;;;;;;5080564;28;20060;-67
2023/01/27 10:03:42;;;;;;;20.35;10.73;;;;;;;;;;5079740;28;20041;-68
2023/01/27 10:06:36;;;;;;;23.00;11.82;;;;;;;;;;5085098;28;20070;-68
2023/01/27 10:09:17;;;;;;;24.52;11.80;;;;;;;;;;5085495;28;20178;-68
2023/01/27 10:11:58;;;;;;;20.02;11.30;;;;;;;;;;5078900;28;20077;-68
2023/01/27 10:14:47;;;;;;;26.05;12.98;;;;;;;;;;5082476;28;20100;-68
2023/01/27 10:17:37;;;;;;;26.42;13.88;;;;;;;;;;5071005;28;20033;-66
2023/01/27 10:20:17;;;;;;;28.65;13.55;;;;;;;;;;5079552;28;20375;-68
2023/01/27 10:22:53;;;;;;;23.85;11.98;;;;;;;;;;5075271;28;20506;-68
2023/01/27 10:25:21;;;;;;;22.95;12.07;;;;;;;;;;5081001;28;20407;-68
2023/01/27 10:27:54;;;;;;;23.42;10.90;;;;;;;;;;5082425;28;20556;-69
2023/01/27 10:30:35;;;;;;;24.73;11.18;;;;;;;;;;5071317;28;20048;-66
2023/01/27 10:33:17;;;;;;;24.05;11.75;;;;;;;;;;5075645;28;20039;-66
2023/01/27 10:35:54;;;;;;;24.73;11.77;;;;;;;;;;5077884;28;20039;-68
2023/01/27 10:38:39;;;;;;;24.05;12.35;;;;;;;;;;5077607;28;20536;-69
2023/01/27 10:41:38;;;;;;;22.80;11.55;;;;;;;;;;5077827;28;20502;-68
2023/01/27 10:44:29;;;;;;;22.02;11.30;;;;;;;;;;5075440;28;20101;-68
2023/01/27 10:47:10;;;;;;;22.00;12.02;;;;;;;;;;5077230;28;20046;-67
2023/01/27 10:49:55;;;;;;;24.35;12.35;;;;;;;;;;5071100;28;20125;-68
2023/01/27 10:52:28;;;;;;;19.15;9.88;;;;;;;;;;5072479;28;20388;-67
2023/01/27 10:54:56;;;;;;;25.15;11.98;;;;;;;;;;5074396;28;20042;-68
2023/01/27 10:57:37;;;;;;;22.48;12.25;;;;;;;;;;5077103;28;20392;-68
2023/01/27 11:00:45;;;;;;;21.92;11.75;;;;;;;;;;5079670;28;20054;-68
2023/01/27 11:03:20;;;;;;;21.13;10.85;;;;;;;;;;5069210;28;20053;-68
2023/01/27 11:05:56;;;;;;;23.38;11.30;;;;;;;;;;5079671;28;20549;-68
2023/01/27 11:08:26;;;;;;;28.92;13.43;;;;;;;;;;5075189;28;20048;-68
2023/01/27 11:13:45;;;;;;;22.35;11.20;;;;;;;;;;5082160;28;20085;-68
2023/01/27 11:16:16;;;;;;;22.50;12.05;;;;;;;;;;5076977;28;20546;-67
2023/01/27 11:18:45;;;;;;;23.30;13.00;;;;;;;;;;5075196;28;20051;-68
2023/01/27 11:21:17;;;;;;;27.97;13.40;;;;;;;;;;5079914;28;20467;-67
2023/01/27 11:23:47;;;;;;;20.90;10.80;;;;;;;;;;5076788;28;20306;-67
2023/01/27 11:26:28;;;;;;;20.83;10.48;;;;;;;;;;5057679;28;20072;-68
2023/01/27 11:29:17;;;;;;;19.33;10.93;;;;;;;;;;5078007;28;20134;-68
2023/01/27 11:32:01;;;;;;;18.70;9.48;;;;;;;;;;5079095;28;20103;-67
2023/01/27 11:34:38;;;;;;;18.98;10.18;;;;;;;;;;5075930;28;20033;-68
2023/01/27 11:37:30;;;;;;;15.23;9.43;;;;;;;;;;5075612;28;20040;-68
2023/01/27 11:39:55;;;;;;;23.17;12.10;;;;;;;;;;5079046;28;20040;-68
2023/01/27 11:42:25;;;;;;;19.17;10.65;;;;;;;;;;5072145;28;20105;-68
2023/01/27 11:44:53;;;;;;;;;;;;;;;;;;5075107;28;20103;-68
2023/01/27 11:47:39;;;;;;;15.18;8.77;;;;;;;;;;5078285;28;19916;-68
2023/01/27 11:50:07;;;;;;;16.00;9.43;;;;;;;;;;5077037;28;20063;-67
2023/01/27 11:52:32;;;;;;;16.77;9.65;;;;;;;;;;5077015;28;20051;-67
2023/01/27 11:55:14;;;;;;;21.17;10.30;;;;;;;;;;5077757;28;20028;-68
2023/01/27 11:57:55;;;;;;;18.45;10.38;;;;;;;;;;5073988;28;20083;-68
2023/01/27 12:00:25;;;;;;;19.83;10.43;;;;;;;;;;5073028;28;20036;-67
2023/01/27 12:03:02;;;;;;;17.40;10.05;;;;;;;;;;5061749;28;20068;-67
2023/01/27 12:05:33;;;;;;;14.82;9.00;;;;;;;;;;5075979;28;20043;-65
2023/01/27 12:08:03;;;;;;;18.80;10.45;;;;;;;;;;5073655;28;20044;-68
2023/01/27 12:10:38;;;;;;;14.75;9.23;;;;;;;;;;5080593;28;20032;-65
2023/01/27 12:13:18;;;;;;;18.63;10.02;;;;;;;;;;5078298;28;20040;-68
2023/01/27 12:15:50;;;;;;;17.52;10.45;;;;;;;;;;5074799;28;20024;-66
2023/01/27 12:18:16;;;;;;;18.30;10.30;;;;;;;;;;5077785;28;20067;-66
2023/01/27 12:20:45;;;;;;;22.20;10.45;;;;;;;;;;5066915;28;21380;-68
2023/01/27 12:23:26;;;;;;;15.38;9.57;;;;;;;;;;5081237;28;21025;-66
2023/01/27 12:25:58;;;;;;;15.15;9.00;;;;;;;;;;5075368;28;20051;-66
2023/01/27 12:28:45;;;;;;;18.23;9.93;;;;;;;;;;5073892;28;20040;-67
2023/01/27 12:31:20;;;;;;;13.77;7.60;;;;;;;;;;5073776;28;20268;-66
2023/01/27 12:34:01;;;;;;;16.55;9.10;;;;;;;;;;5076437;28;20035;-66
2023/01/27 12:36:28;;;;;;;15.23;8.55;;;;;;;;;;5074317;28;20032;-67
2023/01/27 12:38:57;;;;;;;16.55;8.98;;;;;;;;;;5072172;28;20040;-67
2023/01/27 12:41:26;;;;;;;15.20;8.73;;;;;;;;;;5075317;28;20087;-67
2023/01/27 12:43:55;;;;;;;16.38;9.35;;;;;;;;;;5073597;28;20499;-67
2023/01/27 12:46:24;;;;;;;18.45;9.48;;;;;;;;;;5073366;28;20040;-66
2023/01/27 12:48:53;;;;;;;20.15;13.57;;;;;;;;;;5076933;28;20376;-67
2023/01/27 12:51:38;;;;;;;15.45;9.82;;;;;;;;;;5075736;28;20113;-67
2023/01/27 12:54:16;;;;;;;18.20;9.73;;;;;;;;;;5071626;28;20040;-67
2023/01/27 12:56:42;;;;;;;14.32;8.68;;;;;;;;;;5078107;28;20044;-67
2023/01/27 12:59:14;;;;;;;17.20;9.27;;;;;;;;;;5073106;28;20029;-67
2023/01/27 13:01:40;;;;;;;14.15;8.38;;;;;;;;;;5073022;28;20058;-66
2023/01/27 13:04:16;;;;;;;19.38;9.50;;;;;;;;;;5075863;28;20027;-66
2023/01/27 13:06:48;;;;;;;17.00;9.50;;;;;;;;;;5069714;28;20389;-67
2023/01/27 13:09:26;;;;;;;18.90;9.80;;;;;;;;;;5076902;28;20033;-66
2023/01/27 13:11:55;;;;;;;14.68;8.73;;;;;;;;;;5075345;28;20052;-66
2023/01/27 13:14:20;;;;;;;15.82;8.65;;;;;;;;;;5074282;28;20043;-68
2023/01/27 13:16:54;;;;;;;18.90;10.25;;;;;;;;;;5073871;28;20032;-66
2023/01/27 13:19:39;;;;;;;15.43;8.85;;;;;;;;;;5075136;28;20040;-67
2023/01/27 13:22:05;;;;;;;15.63;9.70;;;;;;;;;;5076018;28;20488;-67
2023/01/27 13:24:37;;;;;;;13.93;8.60;;;;;;;;;;5075061;28;20379;-66
2023/01/27 13:27:05;;;;;;;17.10;9.35;;;;;;;;;;5075378;28;20033;-67
2023/01/27 13:29:33;;;;;;;17.38;10.20;;;;;;;;;;5075318;28;20055;-69
2023/01/27 13:32:02;;;;;;;12.60;8.00;;;;;;;;;;5077406;28;20144;-68
2023/01/27 13:34:49;;;;;;;16.40;8.77;;;;;;;;;;5075033;28;20045;-68
2023/01/27 13:37:36;;;;;;;21.27;11.63;;;;;;;;;;5074333;28;20121;-67
2023/01/27 13:40:15;;;;;;;21.40;10.25;;;;;;;;;;5074373;28;20622;-67
2023/01/27 13:42:41;;;;;;;15.52;8.75;;;;;;;;;;5075231;28;20573;-67
2023/01/27 13:45:36;;;;;;;23.52;11.20;;;;;;;;;;5077616;28;20040;-67
2023/01/27 13:48:30;;;;;;;22.30;10.80;;;;;;;;;;5077014;28;20115;-68
2023/01/27 13:51:16;;;;;;;20.90;10.20;;;;;;;;;;5049677;28;20421;-68
2023/01/27 13:53:42;;;;;;;19.35;10.38;;;;;;;;;;5076165;28;20333;-67
2023/01/27 13:56:50;;;;;;;20.75;11.20;;;;;;;;;;5075603;28;20040;-67
2023/01/27 13:59:37;;;;;;;20.35;10.43;;;;;;;;;;5065970;28;20046;-69
2023/01/27 14:02:27;;;;;;;23.90;12.07;;;;;;;;;;5072727;28;20028;-67
2023/01/27 14:05:29;;;;;;;23.67;11.27;;;;;;;;;;5074495;28;20056;-68
2023/01/27 14:08:25;;;;;;;26.13;12.63;;;;;;;;;;5078765;28;20033;-67
2023/01/27 14:11:15;;;;;;;23.98;10.45;;;;;;;;;;5078016;28;20036;-68
2023/01/27 14:14:12;;;;;;;29.48;13.93;;;;;;;;;;5078739;28;20025;-69
2023/01/27 14:17:01;;;;;;;28.05;13.63;;;;;;;;;;5082164;28;20086;-69
2023/01/27 14:20:08;;;;;;;27.88;12.57;;;;;;;;;;5077097;28;20047;-69
2023/01/27 14:22:43;;;;;;;24.10;11.93;;;;;;;;;;5016916;28;20043;-69
2023/01/27 14:25:20;;;;;;;26.25;13.00;;;;;;;;;;5074208;28;20515;-69
2023/01/27 14:28:09;;;;;;;30.05;13.52;;;;;;;;;;5076967;28;20511;-69
2023/01/27 14:30:47;;;;;;;27.73;13.65;;;;;;;;;;5044302;28;20074;-68
2023/01/27 14:33:41;;;;;;;25.00;13.55;;;;;;;;;;5079742;28;20036;-68
2023/01/27 14:36:21;;;;;;;32.70;14.70;;;;;;;;;;5058391;28;20128;-68
2023/01/27 14:38:55;;;;;;;;;;;;;;;;;;5076982;28;20460;-68
2023/01/27 14:41:26;;;;;;;35.85;16.63;;;;;;;;;;5076102;28;19966;-69
2023/01/27 14:43:59;;;;;;;30.77;14.40;;;;;;;;;;5079651;28;20336;-69
2023/01/27 14:46:49;;;;;;;32.20;16.23;;;;;;;;;;5078237;28;20047;-67
2023/01/27 14:49:26;;;;;;;24.23;12.48;;;;;;;;;;5079031;28;20052;-69
2023/01/27 14:52:04;;;;;;;31.95;15.43;;;;;;;;;;5081733;28;20663;-67
2023/01/27 14:55:02;;;;;;;31.35;13.10;;;;;;;;;;5074356;28;20086;-67
2023/01/27 14:57:42;;;;;;;28.25;14.07;;;;;;;;;;5080233;28;20066;-67
2023/01/27 15:00:32;;;;;;;31.08;15.38;;;;;;;;;;5083748;28;20507;-67
2023/01/27 15:03:15;;;;;;;29.77;13.95;;;;;;;;;;5075905;28;20062;-66
2023/01/27 15:06:01;;;;;;;29.50;15.40;;;;;;;;;;5082676;28;20077;-67
2023/01/27 15:08:54;;;;;;;27.42;14.63;;;;;;;;;;5082395;28;20060;-67
2023/01/27 15:11:30;;;;;;;36.42;15.93;;;;;;;;;;5078580;28;20104;-67
2023/01/27 15:14:20;;;;;;;29.65;15.35;;;;;;;;;;5081251;28;20125;-69
2023/01/27 15:16:49;;;;;;;25.50;13.98;;;;;;;;;;5078510;28;20039;-69
2023/01/27 15:19:42;;;;;;;25.42;13.05;;;;;;;;;;5074213;28;20508;-69
2023/01/27 15:22:43;;;;;;;28.90;13.55;;;;;;;;;;5080882;28;20040;-67